Spokane, Washington
Current Conditions -  °F | °C
As of 11:53 AM on Friday 31 Oct 2014 (Local Time) from KSFF Reporting Station
Overcast Overcast  
Wind Chill: 11°   Ceiling: 1000
Heat Index: 11°   Visibility: 9mi
Dew Point:   Wind: 0mph
Humidity: 80%   Direction: NA
Pressure: 29.77"   Gusts: NA
Location:  47.66°N, 117.41°W
Report Text: KSFF 311853Z 00000KT 9SM OVC010 11/08 A2977 RMK AO2 SLP080 T01110078
Loading
Personal Weather Stations






























Interactive Weather Map
Tropical Storm Tracking
New forecast layout! Learn more

10-Day Weather Forecast

Advertisements
Track Severe Weather on mobile